Tropical Cyclones
[Index]
Main Index Home Page Stock Weather Photos Extreme Storms Discussion Storm News and Storm Chasing Reports Tropical Cyclones / Hurricanes / Typhoons Weather Data and Links Wild Fires / Bushfires Weather Observation Techniques Weather Picture Catalogue Tornado Pictures and Reports Stock Video Footage and DVDs for sale
Season 1994-1995 Tropical Cyclone BENTHA Track Map
Season 1994-1995 Summaries: [BoM-AU] [JTWC-AU] [JTWC-SIO] [JTWC-SPAC] [JTWC-SH]
<<- Previous TC | JTWC 1994-1995 Season | Next TC ->>

click for intensity scale information  Lat/long Grid: Show Hide

 Date Labels: Show Hide

Joint Typhoon Warning Centre Cyclone Data

Name: BENTHA

30 Dec 1994 12:00 UTC to 06 Jan 1995 12:00 UTC

    date/time    lat    long     hPa   cat  kts
1994-12-30 12    6.0    63.1                  15          
1994-12-30 18    6.3    62.6                  15          
1994-12-31 00    6.7    62.2                  15          
1994-12-31 06    7.2    61.9                  20          
1994-12-31 12    7.8    61.7                  20          
1994-12-31 18    8.4    61.6                  20          
1995-01-01 00    9.0    61.5                  20          
1995-01-01 06    9.6    61.3                  20          
1995-01-01 12   10.1    61.1                  20          
1995-01-01 18   10.6    61.0                  20          
1995-01-02 00   11.0    60.8                  25          
1995-01-02 06   11.3    60.6                  25          
1995-01-02 12   11.7    60.5                  25          
1995-01-02 18   12.0    60.3                  30          
1995-01-03 00   12.4    60.0                  35          
1995-01-03 06   12.9    59.7            1     40          
1995-01-03 12   13.5    59.5            1     45          
1995-01-03 18   14.1    59.3            1     45          
1995-01-04 00   14.7    59.2            1     45          
1995-01-04 06   15.4    59.2            1     45          
1995-01-04 12   16.0    59.3            1     45          
1995-01-04 18   16.6    59.4            1     50          
1995-01-05 00   17.3    59.3            1     50          
1995-01-05 06   17.9    59.0            2     55          
1995-01-05 12   18.3    58.3            2     55          
1995-01-05 18   18.6    57.6            1     50          
1995-01-06 00   18.6    56.7            1     40          
1995-01-06 06   18.4    55.6                  30          
1995-01-06 12   17.8    54.4                  25          
Winds are 1-min average.

Tropical cyclone tracks developed by Michael Bath using data from the Joint Typhoon Warning Centre Best Tracks and Google Maps.


[Australian Severe Weather index] [Copyright Notice] [Email Contacts] [Search This Site] [Privacy Policy]
Document: tropical_cyclone_bentha.htm Updated: 18 September 2016